Time;durP1;ratioP1;P1;durP2;ratioP2;P2;SDS_P1;SDS_P2;PMS_P1;PMS_P2;Temp;Humidity;BMP_temperature;BMP_pressure;BME280_temperature;BME280_humidity;BME280_pressure;Samples;Min_cycle;Max_cycle;Signal;HPM_P1;HPM_P2
2021/12/12 00:02:10;;;;;;;13.97;12.77;;;2.80;99.90;;;;;;5012907;28;20292;-65
2021/12/12 00:04:39;;;;;;;14.30;12.50;;;2.80;99.90;;;;;;5013032;28;20176;-65
2021/12/12 00:07:11;;;;;;;13.77;12.40;;;2.80;99.90;;;;;;5013344;28;20218;-65
2021/12/12 00:09:41;;;;;;;15.23;13.93;;;2.80;99.90;;;;;;5013206;28;20192;-65
2021/12/12 00:12:24;;;;;;;14.47;12.97;;;2.80;99.90;;;;;;5012993;28;20610;-65
2021/12/12 00:14:51;;;;;;;13.50;12.30;;;2.80;99.90;;;;;;5013051;28;20176;-65
2021/12/12 00:17:18;;;;;;;12.97;12.07;;;2.80;99.90;;;;;;5013012;28;20177;-65
2021/12/12 00:19:44;;;;;;;13.67;12.67;;;2.80;99.90;;;;;;5012845;28;20286;-65
2021/12/12 00:22:13;;;;;;;12.33;11.40;;;2.80;99.90;;;;;;5012651;28;20677;-65
2021/12/12 00:24:40;;;;;;;12.17;10.97;;;2.80;99.90;;;;;;5012695;28;20372;-65
2021/12/12 00:27:06;;;;;;;12.07;10.77;;;2.80;99.90;;;;;;5012221;28;20181;-65
2021/12/12 00:29:33;;;;;;;12.33;11.03;;;2.80;99.90;;;;;;5012791;28;20214;-66
2021/12/12 00:32:07;;;;;;;11.73;10.40;;;2.80;99.90;;;;;;5012215;28;20172;-64
2021/12/12 00:34:36;;;;;;;10.97;9.73;;;2.80;99.90;;;;;;5012854;28;20172;-64
2021/12/12 00:37:04;;;;;;;11.10;10.30;;;2.90;99.90;;;;;;5012477;28;20187;-65
2021/12/12 00:39:33;;;;;;;11.37;10.30;;;2.90;99.90;;;;;;5012747;28;20195;-66
2021/12/12 00:42:18;;;;;;;11.40;10.27;;;2.90;99.90;;;;;;5012243;28;20208;-65
2021/12/12 00:44:48;;;;;;;11.97;10.80;;;2.90;99.90;;;;;;5012386;28;20646;-65
2021/12/12 00:47:15;;;;;;;11.77;10.47;;;2.90;99.90;;;;;;5012505;28;20187;-65
2021/12/12 00:49:42;;;;;;;11.00;9.47;;;3.00;99.90;;;;;;5012455;28;20203;-65
2021/12/12 00:52:12;;;;;;;11.57;10.57;;;3.00;99.90;;;;;;5012244;28;20168;-66
2021/12/12 00:54:40;;;;;;;11.10;10.10;;;3.00;99.90;;;;;;5012262;28;20183;-66
2021/12/12 00:57:09;;;;;;;12.63;11.63;;;3.00;99.90;;;;;;5012257;28;20560;-64
2021/12/12 00:59:36;;;;;;;11.20;10.37;;;3.00;99.90;;;;;;5012419;28;20219;-65
2021/12/12 01:02:06;;;;;;;11.77;10.70;;;3.10;99.90;;;;;;5011176;28;20305;-67
2021/12/12 01:04:37;;;;;;;11.37;10.43;;;3.10;99.90;;;;;;5012532;28;20303;-67
2021/12/12 01:07:07;;;;;;;12.03;10.87;;;3.10;99.90;;;;;;5012070;28;20179;-66
2021/12/12 01:09:38;;;;;;;12.17;11.17;;;3.10;99.90;;;;;;5012239;28;20191;-65
2021/12/12 01:12:12;;;;;;;13.43;10.60;;;3.20;99.90;;;;;;5011845;28;20184;-65
2021/12/12 01:14:44;;;;;;;11.53;10.63;;;3.20;99.90;;;;;;5012050;28;20642;-65
2021/12/12 01:17:14;;;;;;;11.30;10.27;;;3.20;99.90;;;;;;5012008;28;20211;-65
2021/12/12 01:19:55;;;;;;;11.93;10.93;;;3.30;99.90;;;;;;5011620;28;20273;-65
2021/12/12 01:22:35;;;;;;;11.83;10.73;;;3.30;99.90;;;;;;5011398;28;20206;-65
2021/12/12 01:25:17;;;;;;;11.63;10.40;;;3.30;99.90;;;;;;4997813;28;20180;-65
2021/12/12 01:27:43;;;;;;;12.40;11.50;;;3.30;99.90;;;;;;5011714;28;20703;-65
2021/12/12 01:30:11;;;;;;;11.97;10.90;;;3.30;99.90;;;;;;5010316;28;20290;-65
2021/12/12 01:32:37;;;;;;;10.50;9.80;;;3.30;99.90;;;;;;5011444;28;20176;-65
2021/12/12 01:35:13;;;;;;;10.10;9.20;;;3.30;99.90;;;;;;5011552;28;20624;-65
2021/12/12 01:37:42;;;;;;;9.70;8.73;;;3.30;99.90;;;;;;5012036;28;20684;-65
2021/12/12 01:40:19;;;;;;;10.80;9.47;;;3.40;99.90;;;;;;5010041;28;20199;-65
2021/12/12 01:43:01;;;;;;;10.40;9.43;;;3.40;99.90;;;;;;5011162;28;20539;-65
2021/12/12 01:45:34;;;;;;;11.17;10.00;;;3.40;99.90;;;;;;5000039;28;20172;-65
2021/12/12 01:48:07;;;;;;;9.70;8.80;;;3.40;99.90;;;;;;5011739;28;20176;-65
2021/12/12 01:50:38;;;;;;;11.37;9.93;;;3.40;99.90;;;;;;5011505;28;20234;-65
2021/12/12 01:53:07;;;;;;;13.47;10.57;;;3.40;99.90;;;;;;5010585;28;20208;-65
2021/12/12 01:55:39;;;;;;;10.93;9.80;;;3.40;99.90;;;;;;5011480;28;20179;-65
2021/12/12 01:58:12;;;;;;;11.17;10.30;;;3.50;99.90;;;;;;5011596;28;20591;-65
2021/12/12 02:01:05;;;;;;;11.53;10.40;;;3.50;99.90;;;;;;5011077;28;20207;-65
2021/12/12 02:03:35;;;;;;;10.67;9.77;;;3.50;99.90;;;;;;4987319;28;20192;-65
2021/12/12 02:06:05;;;;;;;11.10;9.63;;;3.60;99.90;;;;;;4995408;28;20659;-65
2021/12/12 02:08:32;;;;;;;9.97;9.17;;;3.60;99.90;;;;;;5011224;28;20656;-65
2021/12/12 02:11:01;;;;;;;10.40;9.43;;;3.60;99.90;;;;;;5011151;28;20538;-65
2021/12/12 02:13:30;;;;;;;9.87;9.03;;;3.60;99.90;;;;;;5013076;28;20681;-66
2021/12/12 02:16:00;;;;;;;11.57;10.27;;;3.60;99.90;;;;;;5015287;28;20180;-65
2021/12/12 02:18:33;;;;;;;10.20;9.37;;;3.70;99.90;;;;;;5014867;28;20206;-65
2021/12/12 02:23:46;;;;;;;10.27;9.37;;;3.70;99.90;;;;;;5014766;28;20251;-65
2021/12/12 02:37:10;;;;;;;11.60;10.47;;;3.80;99.90;;;;;;5014816;28;20270;-66
2021/12/12 02:39:40;;;;;;;10.00;9.27;;;3.80;99.90;;;;;;5014953;28;20215;-65
2021/12/12 02:42:10;;;;;;;9.73;8.93;;;3.90;99.90;;;;;;5014388;28;20207;-66
2021/12/12 02:44:39;;;;;;;10.93;9.47;;;3.90;99.90;;;;;;5014487;28;20346;-65
2021/12/12 02:47:12;;;;;;;9.27;8.67;;;3.90;99.90;;;;;;5014577;28;20222;-65
2021/12/12 02:50:09;;;;;;;10.77;8.43;;;4.00;99.90;;;;;;5015130;28;20188;-65
2021/12/12 02:52:31;;;;;;;9.83;8.93;;;4.00;99.90;;;;;;5013801;28;20188;-65
2021/12/12 02:55:00;;;;;;;11.60;9.83;;;4.00;99.90;;;;;;5014385;28;20664;-65
2021/12/12 02:57:26;;;;;;;11.00;10.03;;;4.00;99.90;;;;;;5014030;28;20188;-65
2021/12/12 02:59:52;;;;;;;9.90;9.13;;;4.00;99.90;;;;;;5013401;28;20194;-65
2021/12/12 03:02:28;;;;;;;8.53;7.93;;;4.10;99.90;;;;;;5014048;28;20291;-65
2021/12/12 03:05:00;;;;;;;9.30;8.60;;;4.10;99.90;;;;;;4995017;28;20698;-65
2021/12/12 03:07:26;;;;;;;9.23;8.63;;;4.10;99.90;;;;;;4995399;28;20232;-65
2021/12/12 03:09:56;;;;;;;10.90;9.80;;;4.10;99.90;;;;;;5014387;28;20188;-65
2021/12/12 03:12:31;;;;;;;10.63;9.77;;;4.10;99.90;;;;;;5013700;28;20182;-67
2021/12/12 03:15:24;;;;;;;9.60;8.90;;;4.10;99.90;;;;;;5001138;28;20175;-64
2021/12/12 03:17:53;;;;;;;10.00;9.10;;;4.10;99.90;;;;;;5012006;28;20719;-65
2021/12/12 03:20:25;;;;;;;10.40;8.73;;;4.10;99.90;;;;;;5013838;28;20200;-65
2021/12/12 03:22:58;;;;;;;10.43;9.30;;;4.10;99.90;;;;;;5013751;28;20625;-64
2021/12/12 03:25:24;;;;;;;9.60;8.90;;;4.10;99.90;;;;;;5012442;28;20180;-64
2021/12/12 03:27:50;;;;;;;9.90;9.27;;;4.10;99.90;;;;;;5013336;28;20176;-65
2021/12/12 03:30:16;;;;;;;11.07;10.20;;;4.10;99.90;;;;;;5013803;28;20204;-64
2021/12/12 03:32:42;;;;;;;10.17;9.37;;;4.10;99.90;;;;;;5013571;28;20610;-65
2021/12/12 03:35:08;;;;;;;9.93;9.17;;;4.10;99.90;;;;;;5013292;28;20211;-66
2021/12/12 03:37:34;;;;;;;11.47;8.40;;;4.10;99.90;;;;;;5013894;28;20184;-66
2021/12/12 03:40:18;;;;;;;8.87;8.10;;;4.20;99.90;;;;;;5013452;28;20203;-67
2021/12/12 03:42:46;;;;;;;10.10;8.77;;;4.20;99.90;;;;;;5013388;28;20187;-65
2021/12/12 03:45:13;;;;;;;8.73;8.13;;;4.20;99.90;;;;;;5013940;28;20172;-65
2021/12/12 03:47:47;;;;;;;9.20;8.50;;;4.20;99.90;;;;;;5013535;28;20165;-65
2021/12/12 03:50:17;;;;;;;12.57;9.43;;;4.20;99.90;;;;;;5013503;28;20204;-66
2021/12/12 03:52:44;;;;;;;9.17;8.27;;;4.20;99.90;;;;;;5013273;28;20211;-65
2021/12/12 03:55:11;;;;;;;10.40;9.77;;;4.20;99.90;;;;;;5013298;28;20187;-65
2021/12/12 03:57:37;;;;;;;9.53;8.83;;;4.20;99.90;;;;;;5013322;28;20649;-66
2021/12/12 04:00:07;;;;;;;11.47;10.47;;;4.30;99.90;;;;;;5013446;28;20207;-65
2021/12/12 04:02:33;;;;;;;10.87;10.07;;;4.30;99.90;;;;;;5011502;28;20171;-66
2021/12/12 04:04:59;;;;;;;12.00;10.87;;;4.20;99.90;;;;;;5013220;28;20215;-65
2021/12/12 04:07:28;;;;;;;11.00;10.07;;;4.20;99.90;;;;;;5013161;28;20172;-65
2021/12/12 04:09:56;;;;;;;8.60;8.10;;;4.20;99.90;;;;;;5013020;28;20283;-65
2021/12/12 04:12:23;;;;;;;9.00;8.47;;;4.20;99.90;;;;;;5012970;28;20542;-65
2021/12/12 04:14:51;;;;;;;10.40;9.50;;;4.20;99.90;;;;;;5012898;28;20661;-65
2021/12/12 04:17:22;;;;;;;11.20;8.53;;;4.10;99.90;;;;;;5013010;28;20550;-64
2021/12/12 04:19:51;;;;;;;9.13;8.43;;;4.10;99.90;;;;;;5013084;28;20685;-66
2021/12/12 04:22:17;;;;;;;9.17;8.53;;;4.10;99.90;;;;;;5012732;28;20203;-65
2021/12/12 04:24:45;;;;;;;9.50;8.70;;;4.10;99.90;;;;;;5012648;28;20183;-65
2021/12/12 04:27:13;;;;;;;10.00;9.03;;;4.10;99.90;;;;;;5012427;28;20239;-65
2021/12/12 04:29:42;;;;;;;10.40;9.40;;;4.10;99.90;;;;;;5013316;28;20211;-66
2021/12/12 04:32:15;;;;;;;10.37;8.63;;;4.10;99.90;;;;;;5012073;28;20207;-66
2021/12/12 04:34:45;;;;;;;10.43;8.53;;;4.20;99.90;;;;;;5012958;28;20180;-65
2021/12/12 04:37:11;;;;;;;10.37;9.30;;;4.20;99.90;;;;;;5012459;28;20183;-65
2021/12/12 04:39:41;;;;;;;9.93;9.10;;;4.20;99.90;;;;;;5012511;28;20203;-65
2021/12/12 04:42:17;;;;;;;9.83;9.13;;;4.20;99.90;;;;;;5012530;28;20208;-66
2021/12/12 04:44:47;;;;;;;9.10;8.50;;;4.20;99.90;;;;;;5012450;28;20634;-65
2021/12/12 04:50:36;;;;;;;9.63;8.83;;;4.20;99.90;;;;;;4993264;28;20682;-65
2021/12/12 04:53:10;;;;;;;9.97;8.97;;;4.20;99.90;;;;;;4998035;28;20183;-66
2021/12/12 04:55:54;;;;;;;10.90;9.50;;;4.30;99.90;;;;;;5012788;28;20164;-67
2021/12/12 04:58:48;;;;;;;9.50;8.77;;;4.20;99.90;;;;;;5011833;28;20195;-67
2021/12/12 05:01:18;;;;;;;10.20;8.67;;;4.30;99.90;;;;;;5012201;28;20253;-66
2021/12/12 05:03:52;;;;;;;10.63;9.67;;;4.30;99.90;;;;;;5012025;28;20180;-66
2021/12/12 05:06:28;;;;;;;10.80;10.10;;;4.30;99.90;;;;;;5012284;28;20176;-67
2021/12/12 05:09:16;;;;;;;10.03;9.13;;;4.30;99.90;;;;;;5012165;28;20223;-65
2021/12/12 05:11:56;;;;;;;17.50;9.23;;;4.30;99.90;;;;;;5012548;28;20198;-65
2021/12/12 05:14:26;;;;;;;10.23;9.33;;;4.30;99.90;;;;;;5012093;28;20180;-66
2021/12/12 05:17:13;;;;;;;9.90;9.10;;;4.30;99.90;;;;;;5011094;28;20206;-65
2021/12/12 05:19:46;;;;;;;9.90;9.10;;;4.30;99.90;;;;;;5011941;28;20222;-65
2021/12/12 05:22:20;;;;;;;10.37;9.47;;;4.30;99.90;;;;;;5011596;28;20566;-66
2021/12/12 05:24:52;;;;;;;11.43;10.33;;;4.30;99.90;;;;;;5011614;28;20187;-66
2021/12/12 05:27:21;;;;;;;9.83;9.03;;;4.40;99.90;;;;;;5011857;28;20199;-66
2021/12/12 05:29:58;;;;;;;9.90;9.00;;;4.40;99.90;;;;;;5011832;28;20574;-66
2021/12/12 05:32:25;;;;;;;11.50;9.53;;;4.40;99.90;;;;;;5011607;28;20598;-66
2021/12/12 05:34:51;;;;;;;9.93;9.23;;;4.40;99.90;;;;;;5011777;28;20175;-65
2021/12/12 05:37:21;;;;;;;11.47;9.27;;;4.40;99.90;;;;;;5011715;28;20176;-65
2021/12/12 05:39:47;;;;;;;10.73;9.90;;;4.40;99.90;;;;;;5011765;28;20238;-65
2021/12/12 05:42:14;;;;;;;12.27;9.30;;;4.40;99.90;;;;;;5011204;28;20286;-66
2021/12/12 05:44:42;;;;;;;9.93;9.23;;;4.50;99.90;;;;;;5008841;28;20190;-66
2021/12/12 05:47:09;;;;;;;11.27;10.20;;;4.50;99.90;;;;;;4991645;28;20234;-67
2021/12/12 05:49:40;;;;;;;10.17;9.27;;;4.50;99.90;;;;;;4992030;28;20192;-66
2021/12/12 05:52:11;;;;;;;10.43;9.60;;;4.50;99.90;;;;;;5003473;28;20191;-66
2021/12/12 05:54:39;;;;;;;12.33;9.73;;;4.50;99.90;;;;;;5011687;28;20212;-66
2021/12/12 05:57:05;;;;;;;11.73;10.30;;;4.50;99.90;;;;;;5011145;28;20188;-65
2021/12/12 05:59:31;;;;;;;9.67;8.90;;;4.50;99.90;;;;;;5011291;28;20204;-66
2021/12/12 06:02:03;;;;;;;10.03;9.30;;;4.50;99.90;;;;;;5011508;28;20341;-66
2021/12/12 06:04:29;;;;;;;10.97;9.83;;;4.50;99.90;;;;;;5011172;28;20172;-66
2021/12/12 06:06:56;;;;;;;10.03;9.17;;;4.60;99.90;;;;;;5011455;28;20684;-66
2021/12/12 06:09:22;;;;;;;10.60;9.70;;;4.50;99.90;;;;;;5011518;28;20203;-66
2021/12/12 06:11:50;;;;;;;14.70;10.47;;;4.50;99.90;;;;;;5011911;28;20203;-66
2021/12/12 06:14:17;;;;;;;11.87;9.80;;;4.50;99.90;;;;;;5011232;28;20262;-66
2021/12/12 06:16:45;;;;;;;10.93;9.97;;;4.50;99.90;;;;;;5011561;28;20172;-66
2021/12/12 06:19:22;;;;;;;11.97;10.83;;;4.50;99.90;;;;;;5011271;28;20274;-65
2021/12/12 06:21:53;;;;;;;10.53;9.63;;;4.50;99.90;;;;;;5011534;28;20206;-65
2021/12/12 06:24:22;;;;;;;10.57;9.40;;;4.50;99.90;;;;;;5009977;28;20252;-66
2021/12/12 06:26:48;;;;;;;9.70;8.97;;;4.60;99.90;;;;;;5009739;28;20606;-66
2021/12/12 06:29:14;;;;;;;10.30;9.30;;;4.60;99.90;;;;;;5010656;28;20604;-67
2021/12/12 06:31:43;;;;;;;13.23;10.33;;;4.60;99.90;;;;;;5011068;28;20235;-66
2021/12/12 06:34:10;;;;;;;11.27;10.27;;;4.60;99.90;;;;;;5010995;28;20191;-66
2021/12/12 06:36:37;;;;;;;11.03;10.33;;;4.70;99.90;;;;;;5011176;28;20168;-65
2021/12/12 06:39:06;;;;;;;10.47;9.50;;;4.70;99.90;;;;;;5010703;28;20200;-67
2021/12/12 06:41:33;;;;;;;11.77;8.97;;;4.70;99.90;;;;;;5011204;28;20665;-67
2021/12/12 06:44:05;;;;;;;9.97;9.13;;;4.70;99.90;;;;;;5010830;28;20188;-66
2021/12/12 06:46:32;;;;;;;11.03;9.93;;;4.70;99.90;;;;;;5010636;28;20622;-66
2021/12/12 06:48:59;;;;;;;9.90;9.10;;;4.80;99.90;;;;;;5010776;28;20207;-65
2021/12/12 06:51:27;;;;;;;11.63;10.47;;;4.80;99.90;;;;;;5010895;28;20180;-66
2021/12/12 06:53:53;;;;;;;10.83;9.87;;;4.80;99.90;;;;;;5010701;28;20173;-66
2021/12/12 06:56:21;;;;;;;10.73;9.73;;;4.80;99.90;;;;;;5011041;28;20179;-66
2021/12/12 06:58:48;;;;;;;10.23;9.40;;;4.90;99.90;;;;;;5010601;28;20690;-66
2021/12/12 07:01:18;;;;;;;11.40;10.43;;;4.90;99.90;;;;;;5014189;28;20294;-66
2021/12/12 07:03:46;;;;;;;10.53;9.70;;;4.90;99.90;;;;;;5014265;28;20177;-66
2021/12/12 07:06:13;;;;;;;9.80;8.67;;;4.90;99.90;;;;;;5013367;28;20172;-66
2021/12/12 07:08:39;;;;;;;9.83;8.93;;;4.90;99.90;;;;;;5012897;28;20510;-66
2021/12/12 07:11:06;;;;;;;11.27;10.37;;;4.90;99.90;;;;;;5014778;28;20702;-66
2021/12/12 07:13:32;;;;;;;11.27;10.17;;;4.90;99.90;;;;;;5014119;28;20184;-66
2021/12/12 07:16:01;;;;;;;11.07;10.13;;;5.00;99.90;;;;;;5014626;28;20179;-66
2021/12/12 07:18:30;;;;;;;10.90;9.90;;;5.00;99.90;;;;;;5014121;28;20667;-66
2021/12/12 07:20:59;;;;;;;11.03;9.90;;;5.00;99.90;;;;;;5014197;28;20195;-66
2021/12/12 07:23:25;;;;;;;12.20;11.20;;;5.00;99.90;;;;;;5013125;28;20172;-66
2021/12/12 07:25:52;;;;;;;11.00;10.20;;;5.00;99.90;;;;;;5012385;28;20227;-65
2021/12/12 07:28:18;;;;;;;11.67;10.63;;;5.00;99.90;;;;;;5013756;28;20203;-66
2021/12/12 07:30:44;;;;;;;10.87;10.00;;;5.00;99.90;;;;;;5012811;28;20732;-65
2021/12/12 07:33:10;;;;;;;14.77;10.33;;;5.00;99.90;;;;;;5013442;28;20190;-65
2021/12/12 07:35:39;;;;;;;10.23;9.30;;;5.00;99.90;;;;;;5014097;28;20182;-66
2021/12/12 07:38:08;;;;;;;13.23;9.37;;;5.00;99.90;;;;;;5013880;28;20234;-67
2021/12/12 07:40:34;;;;;;;10.70;9.73;;;5.00;99.90;;;;;;5013786;28;20200;-66
2021/12/12 07:43:00;;;;;;;9.83;9.03;;;5.10;99.90;;;;;;5013149;28;20180;-66
2021/12/12 07:45:26;;;;;;;10.77;9.87;;;5.10;99.90;;;;;;5013830;28;20520;-66
2021/12/12 07:47:53;;;;;;;9.87;8.87;;;5.10;99.90;;;;;;5013711;28;20188;-67
2021/12/12 07:50:21;;;;;;;9.40;8.70;;;5.10;99.90;;;;;;5013409;28;20192;-67
2021/12/12 07:52:49;;;;;;;9.90;9.13;;;5.20;99.90;;;;;;5013296;28;20168;-67
2021/12/12 07:55:14;;;;;;;11.83;10.87;;;5.20;99.90;;;;;;5013383;28;20259;-67
2021/12/12 07:57:41;;;;;;;11.07;9.93;;;5.20;99.90;;;;;;5013450;28;20259;-66
2021/12/12 08:00:15;;;;;;;10.00;9.20;;;5.20;99.90;;;;;;5013997;28;20654;-67
2021/12/12 08:02:42;;;;;;;10.50;9.23;;;5.20;99.90;;;;;;5013288;28;20176;-67
2021/12/12 08:05:11;;;;;;;12.40;10.87;;;5.20;99.90;;;;;;5013297;28;20203;-67
2021/12/12 08:07:40;;;;;;;9.30;8.57;;;5.30;99.90;;;;;;5013308;28;20191;-67
2021/12/12 08:10:08;;;;;;;10.00;9.20;;;5.30;99.90;;;;;;5013387;28;20569;-67
2021/12/12 08:12:34;;;;;;;9.60;8.90;;;5.30;99.90;;;;;;5012665;28;20191;-67
2021/12/12 08:15:04;;;;;;;9.27;8.57;;;5.30;99.90;;;;;;5013264;28;20182;-67
2021/12/12 08:17:30;;;;;;;8.77;8.17;;;5.30;99.90;;;;;;5013379;28;20734;-68
2021/12/12 08:19:57;;;;;;;9.63;8.83;;;5.40;99.90;;;;;;5012873;28;20204;-67
2021/12/12 08:22:25;;;;;;;13.40;9.40;;;5.40;99.90;;;;;;5012883;28;20200;-67
2021/12/12 08:24:51;;;;;;;9.17;8.40;;;5.50;99.90;;;;;;5013169;28;20187;-68
2021/12/12 08:27:17;;;;;;;13.30;8.87;;;5.50;99.90;;;;;;5012790;28;20172;-67
2021/12/12 08:29:43;;;;;;;9.60;8.80;;;5.50;99.90;;;;;;5013112;28;20720;-67
2021/12/12 08:32:12;;;;;;;10.17;9.17;;;5.50;99.90;;;;;;5012709;28;20168;-67
2021/12/12 08:34:38;;;;;;;9.47;8.80;;;5.50;99.90;;;;;;5012951;28;20223;-67
2021/12/12 08:37:05;;;;;;;10.17;9.30;;;5.60;99.90;;;;;;5012603;28;20172;-67
2021/12/12 08:39:32;;;;;;;9.20;8.60;;;5.60;99.90;;;;;;5011775;28;20227;-67
2021/12/12 08:42:00;;;;;;;8.73;8.13;;;5.60;99.90;;;;;;5012346;28;20215;-67
2021/12/12 08:44:28;;;;;;;8.90;8.30;;;5.60;99.90;;;;;;5012810;28;20176;-67
2021/12/12 08:46:56;;;;;;;9.87;8.50;;;5.70;99.90;;;;;;5012786;28;20177;-66
2021/12/12 08:49:24;;;;;;;8.77;8.27;;;5.70;99.90;;;;;;5013196;28;20250;-67
2021/12/12 08:52:05;;;;;;;9.07;8.37;;;5.70;99.90;;;;;;5012812;28;20183;-65
2021/12/12 08:54:34;;;;;;;8.30;7.80;;;5.80;99.90;;;;;;5011232;28;20176;-67
2021/12/12 08:57:20;;;;;;;9.33;8.53;;;5.80;99.90;;;;;;5012307;28;20172;-66
2021/12/12 08:59:48;;;;;;;8.33;7.73;;;5.80;99.90;;;;;;5012693;28;20192;-68
2021/12/12 09:02:17;;;;;;;9.23;8.53;;;5.80;99.90;;;;;;5011685;28;20356;-68
2021/12/12 09:04:49;;;;;;;8.60;7.97;;;5.90;99.90;;;;;;5011608;28;20176;-67
2021/12/12 09:07:24;;;;;;;7.80;7.30;;;6.00;99.90;;;;;;5012366;28;20251;-67
2021/12/12 09:09:59;;;;;;;8.90;8.20;;;6.00;99.90;;;;;;5012484;28;20198;-67
2021/12/12 09:12:30;;;;;;;8.30;7.60;;;6.00;99.90;;;;;;5012216;28;20195;-67
2021/12/12 09:15:11;;;;;;;8.33;7.73;;;6.10;99.90;;;;;;5010188;28;20208;-68
2021/12/12 09:17:47;;;;;;;7.93;7.23;;;6.10;99.90;;;;;;5012103;28;20180;-67
2021/12/12 09:20:21;;;;;;;7.40;6.90;;;6.20;99.90;;;;;;5010593;28;20475;-68
2021/12/12 09:23:00;;;;;;;7.83;7.33;;;6.20;99.90;;;;;;5011188;28;20210;-68
2021/12/12 09:25:35;;;;;;;8.17;7.53;;;6.20;99.90;;;;;;5011654;28;20171;-68
2021/12/12 09:28:26;;;;;;;8.20;7.63;;;6.30;99.90;;;;;;5012438;28;20172;-68
2021/12/12 09:30:54;;;;;;;7.70;7.20;;;6.30;99.90;;;;;;5006832;28;20192;-67
2021/12/12 09:33:27;;;;;;;8.07;7.30;;;6.40;99.90;;;;;;5009092;28;20204;-67
2021/12/12 09:36:03;;;;;;;7.80;7.40;;;6.50;99.90;;;;;;5010436;28;20184;-67
2021/12/12 09:38:46;;;;;;;7.33;6.83;;;6.50;99.90;;;;;;5005700;28;20184;-67
2021/12/12 09:41:18;;;;;;;7.57;7.17;;;6.60;99.90;;;;;;5011430;28;20209;-67
2021/12/12 09:44:22;;;;;;;6.90;6.50;;;6.60;99.90;;;;;;5011251;28;20200;-67
2021/12/12 09:47:31;;;;;;;8.40;7.60;;;6.60;99.90;;;;;;4995114;28;20172;-67
2021/12/12 09:53:44;;;;;;;8.60;8.10;;;6.60;99.90;;;;;;4991693;28;20231;-66
2021/12/12 09:56:28;;;;;;;7.67;7.20;;;6.60;99.90;;;;;;4997513;28;20188;-67
2021/12/12 09:59:03;;;;;;;7.83;7.40;;;6.60;99.90;;;;;;5011228;28;20694;-66
2021/12/12 10:01:37;;;;;;;7.80;7.30;;;6.60;99.90;;;;;;5011128;28;20203;-67
2021/12/12 10:04:18;;;;;;;8.33;7.73;;;6.70;99.90;;;;;;5010966;28;20176;-66
2021/12/12 10:07:02;;;;;;;7.07;6.67;;;6.70;99.90;;;;;;5011448;28;20212;-67
2021/12/12 10:09:37;;;;;;;7.53;7.13;;;6.70;99.90;;;;;;5011324;28;20337;-67
2021/12/12 10:12:14;;;;;;;7.00;6.50;;;6.80;99.90;;;;;;5011221;28;20604;-67
2021/12/12 10:14:50;;;;;;;7.20;6.70;;;6.80;99.90;;;;;;5011133;28;20190;-67
2021/12/12 10:17:33;;;;;;;6.93;6.53;;;6.80;99.90;;;;;;5011099;28;20262;-67
2021/12/12 10:20:19;;;;;;;7.27;6.80;;;6.90;99.90;;;;;;5010590;28;20203;-67
2021/12/12 10:23:08;;;;;;;7.20;6.80;;;6.90;99.90;;;;;;5010966;28;20225;-66
2021/12/12 10:25:50;;;;;;;7.87;7.37;;;7.00;99.90;;;;;;5011274;28;20227;-66
2021/12/12 10:28:24;;;;;;;7.57;7.10;;;7.00;99.90;;;;;;5010741;28;20184;-66
2021/12/12 10:31:09;;;;;;;7.27;6.87;;;7.00;99.90;;;;;;5011823;28;20180;-66
2021/12/12 10:33:51;;;;;;;7.90;7.30;;;7.10;99.90;;;;;;5011437;28;20241;-65
2021/12/12 10:36:21;;;;;;;8.20;7.70;;;7.20;99.90;;;;;;5013880;28;20555;-67
2021/12/12 10:39:03;;;;;;;8.03;7.53;;;7.20;99.90;;;;;;5014928;28;20744;-66
2021/12/12 10:42:02;;;;;;;8.23;7.63;;;7.20;99.90;;;;;;5014771;28;20215;-67
2021/12/12 10:44:32;;;;;;;8.37;7.90;;;7.30;99.90;;;;;;5013462;28;20184;-66
2021/12/12 10:47:04;;;;;;;8.00;7.40;;;7.30;99.90;;;;;;5014970;28;20173;-66
2021/12/12 10:49:48;;;;;;;8.30;7.60;;;7.40;99.90;;;;;;5014446;28;20200;-66
2021/12/12 10:52:29;;;;;;;7.73;7.23;;;7.40;99.90;;;;;;5012073;28;20232;-66
2021/12/12 10:54:59;;;;;;;7.97;7.37;;;7.40;99.90;;;;;;5012305;28;20210;-66
2021/12/12 10:57:31;;;;;;;8.27;7.77;;;7.40;99.90;;;;;;5014277;28;20176;-66
2021/12/12 11:00:09;;;;;;;8.07;7.50;;;7.30;99.90;;;;;;5014759;28;20188;-66
2021/12/12 11:02:44;;;;;;;8.70;8.10;;;7.40;99.90;;;;;;5014118;28;20199;-66
2021/12/12 11:05:13;;;;;;;7.77;7.27;;;7.40;99.90;;;;;;5014302;28;20168;-66
2021/12/12 11:07:58;;;;;;;7.83;7.43;;;7.40;99.90;;;;;;5014364;28;20173;-66
2021/12/12 11:10:28;;;;;;;8.33;7.73;;;7.50;99.90;;;;;;5012924;28;20203;-66
2021/12/12 11:13:08;;;;;;;8.23;7.53;;;7.50;99.90;;;;;;5014030;28;20439;-66
2021/12/12 11:15:33;;;;;;;8.90;8.40;;;7.50;99.90;;;;;;5014326;28;20173;-66
2021/12/12 11:18:28;;;;;;;8.43;7.83;;;7.50;99.90;;;;;;5014030;28;20239;-65
2021/12/12 11:21:08;;;;;;;8.10;7.63;;;7.50;99.90;;;;;;5010904;28;20204;-67
2021/12/12 11:23:36;;;;;;;7.60;7.20;;;7.50;99.90;;;;;;5014092;28;20172;-67
2021/12/12 11:26:10;;;;;;;8.07;7.40;;;7.60;99.90;;;;;;5013994;28;20179;-67
2021/12/12 11:28:41;;;;;;;7.13;6.73;;;7.60;99.90;;;;;;5014097;28;20563;-67
2021/12/12 11:31:15;;;;;;;7.33;6.93;;;7.70;99.90;;;;;;5013685;28;20226;-67
2021/12/12 11:33:45;;;;;;;7.93;7.43;;;7.70;99.90;;;;;;5013913;28;20180;-67
2021/12/12 11:36:15;;;;;;;8.00;7.50;;;7.80;99.90;;;;;;5013816;28;20203;-67
2021/12/12 11:38:46;;;;;;;7.83;7.33;;;7.80;99.90;;;;;;5013909;28;20199;-67
2021/12/12 11:41:25;;;;;;;10.03;9.07;;;7.90;99.90;;;;;;5011910;28;20286;-67
2021/12/12 11:44:15;;;;;;;8.77;8.07;;;7.90;99.90;;;;;;5012556;28;20172;-67
2021/12/12 11:47:03;;;;;;;9.40;8.60;;;8.00;99.90;;;;;;5011765;28;20545;-68
2021/12/12 11:49:48;;;;;;;10.60;9.40;;;8.10;99.90;;;;;;5013063;28;20570;-67
2021/12/12 11:52:23;;;;;;;7.93;7.43;;;8.20;99.90;;;;;;5013493;28;20187;-67
2021/12/12 11:55:12;;;;;;;7.20;6.80;;;8.20;99.90;;;;;;5013940;28;20190;-68
2021/12/12 11:58:18;;;;;;;8.00;7.60;;;8.30;99.90;;;;;;5013645;28;20248;-67
2021/12/12 12:00:54;;;;;;;8.40;7.90;;;8.30;99.90;;;;;;5013147;28;20232;-66
2021/12/12 12:03:23;;;;;;;7.47;6.97;;;8.30;99.90;;;;;;5013210;28;20179;-68
2021/12/12 12:06:28;;;;;;;7.00;6.60;;;8.30;99.90;;;;;;5013903;28;20259;-67
2021/12/12 12:09:25;;;;;;;7.10;6.60;;;8.30;99.90;;;;;;5012853;28;20223;-67
2021/12/12 12:12:08;;;;;;;7.20;6.80;;;8.30;99.90;;;;;;5012603;28;20262;-65
2021/12/12 12:14:45;;;;;;;8.70;8.10;;;8.30;99.90;;;;;;5013072;28;20183;-66
2021/12/12 12:17:30;;;;;;;8.93;8.13;;;8.30;99.90;;;;;;5013121;28;20207;-68
2021/12/12 12:20:07;;;;;;;8.97;8.43;;;8.20;99.90;;;;;;5013506;28;20235;-67
2021/12/12 12:23:12;;;;;;;7.27;6.87;;;8.20;99.90;;;;;;5013329;28;20273;-67
2021/12/12 12:28:38;;;;;;;8.87;8.27;;;8.20;99.90;;;;;;5012110;28;20188;-66
2021/12/12 12:31:32;;;;;;;8.60;8.00;;;8.10;99.90;;;;;;5011423;28;20226;-68
2021/12/12 12:34:35;;;;;;;7.77;7.37;;;8.10;99.90;;;;;;5012188;28;20673;-67
2021/12/12 12:37:38;;;;;;;9.07;8.37;;;8.00;99.90;;;;;;5013148;28;20172;-67
2021/12/12 12:40:27;;;;;;;9.37;8.67;;;8.00;99.90;;;;;;4993500;28;20196;-67
2021/12/12 12:43:14;;;;;;;9.07;8.47;;;7.90;99.90;;;;;;4996461;28;20180;-67
2021/12/12 12:46:05;;;;;;;8.73;8.07;;;7.90;99.90;;;;;;5011482;28;20176;-69
2021/12/12 12:48:46;;;;;;;9.80;9.00;;;7.90;99.90;;;;;;5012381;28;20247;-68
2021/12/12 12:51:54;;;;;;;9.43;8.83;;;8.00;99.90;;;;;;5012443;28;20168;-67
2021/12/12 12:54:35;;;;;;;9.57;8.77;;;8.00;99.90;;;;;;5011972;28;20180;-68
2021/12/12 12:57:23;;;;;;;10.20;9.50;;;8.00;99.90;;;;;;5011829;28;20171;-68
2021/12/12 12:59:58;;;;;;;10.43;9.50;;;8.00;99.90;;;;;;5012241;28;20548;-67
2021/12/12 13:03:02;;;;;;;10.90;9.83;;;8.10;99.90;;;;;;5012092;28;20213;-67
2021/12/12 13:05:49;;;;;;;10.50;9.50;;;8.10;99.90;;;;;;4983387;28;20196;-67
2021/12/12 13:08:49;;;;;;;9.57;8.77;;;8.10;99.90;;;;;;4998140;28;20180;-67
2021/12/12 13:11:18;;;;;;;8.83;8.13;;;8.10;99.90;;;;;;5010433;28;20267;-68
2021/12/12 13:13:58;;;;;;;9.03;8.23;;;8.10;99.90;;;;;;5011830;28;20176;-66
2021/12/12 13:16:32;;;;;;;8.40;7.77;;;8.10;99.90;;;;;;5011970;28;20282;-67
2021/12/12 13:19:09;;;;;;;9.33;8.53;;;8.20;99.90;;;;;;5012092;28;20203;-68
2021/12/12 13:22:23;;;;;;;9.17;8.57;;;8.20;99.90;;;;;;5011966;28;20229;-67
2021/12/12 13:24:58;;;;;;;9.60;8.80;;;8.30;99.90;;;;;;5002494;28;20180;-67
2021/12/12 13:28:02;;;;;;;9.43;8.53;;;8.30;99.90;;;;;;5011780;28;20176;-68
2021/12/12 13:30:41;;;;;;;9.37;8.77;;;8.40;99.90;;;;;;5011888;28;20860;-67
2021/12/12 13:33:34;;;;;;;8.97;8.43;;;8.40;99.90;;;;;;4992256;28;20183;-66
2021/12/12 13:36:26;;;;;;;9.57;8.87;;;8.40;99.90;;;;;;4995316;28;20172;-68
2021/12/12 13:39:05;;;;;;;8.53;7.93;;;8.40;99.90;;;;;;5012053;28;20260;-68
2021/12/12 13:41:50;;;;;;;8.37;7.87;;;8.40;99.90;;;;;;5011256;28;20204;-67
2021/12/12 13:45:00;;;;;;;8.83;8.23;;;8.60;99.90;;;;;;5011397;28;20168;-67
2021/12/12 13:47:58;;;;;;;9.10;8.40;;;8.60;99.90;;;;;;5009777;28;20191;-67
2021/12/12 13:50:39;;;;;;;11.73;10.83;;;8.80;99.90;;;;;;5010238;28;20188;-67